Time;durP1;ratioP1;P1;durP2;ratioP2;P2;SDS_P1;SDS_P2;PMS_P1;PMS_P2;Temp;Humidity;BMP_temperature;BMP_pressure;BME280_temperature;BME280_humidity;BME280_pressure;Samples;Min_cycle;Max_cycle;Signal;HPM_P1;HPM_P2
2022/10/16 00:00:35;;;;;;;5.75;2.80;;;;;;;10.72;100.00;95882.81;6176198;23;20066;-63
2022/10/16 00:03:01;;;;;;;4.20;2.40;;;;;;;10.68;100.00;95885.88;6176127;23;20008;-58
2022/10/16 00:05:27;;;;;;;6.53;2.50;;;;;;;10.63;100.00;95882.81;6176293;23;19997;-72
2022/10/16 00:07:53;;;;;;;4.18;2.88;;;;;;;10.60;100.00;95879.50;6176402;23;20354;-72
2022/10/16 00:10:18;;;;;;;3.00;2.15;;;;;;;10.58;100.00;95884.06;6176448;23;20025;-72
2022/10/16 00:12:43;;;;;;;2.35;2.10;;;;;;;10.60;100.00;95881.28;6175915;23;19997;-73
2022/10/16 00:15:09;;;;;;;2.45;2.20;;;;;;;10.60;100.00;95883.91;6176552;23;20008;-72
2022/10/16 00:17:35;;;;;;;2.50;2.28;;;;;;;10.55;100.00;95875.59;6176491;23;19997;-71
2022/10/16 00:20:00;;;;;;;2.63;2.30;;;;;;;10.50;100.00;95881.31;6175799;23;20040;-72
2022/10/16 00:22:25;;;;;;;4.93;2.60;;;;;;;10.55;100.00;95878.25;6175864;23;20347;-67
2022/10/16 00:24:51;;;;;;;4.13;2.42;;;;;;;10.52;100.00;95876.72;6176312;23;19996;-57
2022/10/16 00:27:16;;;;;;;2.92;2.60;;;;;;;10.46;100.00;95877.25;6176439;23;20054;-58
2022/10/16 00:29:43;;;;;;;11.15;2.70;;;;;;;10.43;100.00;95870.47;6176157;23;20058;-57
2022/10/16 00:32:08;;;;;;;3.45;2.58;;;;;;;10.44;100.00;95868.66;6176607;23;20037;-58
2022/10/16 00:34:34;;;;;;;4.95;2.65;;;;;;;10.39;100.00;95874.34;6175722;23;20008;-59
2022/10/16 00:36:59;;;;;;;4.88;2.67;;;;;;;10.39;100.00;95873.47;6176329;22;20099;-58
2022/10/16 00:39:24;;;;;;;3.80;2.67;;;;;;;10.38;100.00;95869.19;6175976;23;20008;-66
2022/10/16 00:41:50;;;;;;;7.35;5.30;;;;;;;10.32;100.00;95871.41;6176179;23;20009;-63
2022/10/16 00:44:44;;;;;;;4.70;4.30;;;;;;;10.26;100.00;95871.94;6175997;22;20076;-67
2022/10/16 00:47:12;;;;;;;5.03;2.67;;;;;;;10.22;100.00;95875.81;6176408;23;20088;-66
2022/10/16 00:49:38;;;;;;;5.65;2.42;;;;;;;10.22;100.00;95881.06;6175959;23;20012;-66
2022/10/16 00:52:04;;;;;;;4.68;2.75;;;;;;;10.26;100.00;95877.19;6176003;23;19994;-67
2022/10/16 00:54:32;;;;;;;3.55;2.58;;;;;;;10.24;100.00;95876.50;6175410;23;20001;-66
2022/10/16 00:57:01;;;;;;;4.35;2.30;;;;;;;10.25;100.00;95870.25;6175792;23;20012;-67
2022/10/16 00:59:27;;;;;;;2.67;2.47;;;;;;;10.20;100.00;95872.47;6175965;23;20008;-64
2022/10/16 01:01:54;;;;;;;6.93;2.40;;;;;;;10.15;100.00;95877.31;6175761;23;20076;-68
2022/10/16 01:04:20;;;;;;;3.92;2.22;;;;;;;10.21;100.00;95887.28;6175950;23;20009;-64
2022/10/16 01:06:53;;;;;;;4.00;2.80;;;;;;;10.14;100.00;95899.34;6176876;23;20070;-64
2022/10/16 01:09:52;;;;;;;5.03;2.22;;;;;;;10.12;100.00;95883.66;6177356;23;20458;-63
2022/10/16 01:12:31;;;;;;;2.33;2.17;;;;;;;10.08;100.00;95889.34;6176671;23;20046;-64
2022/10/16 01:15:17;;;;;;;2.80;2.60;;;;;;;10.09;100.00;95898.91;6177439;22;20073;-64
2022/10/16 01:17:58;;;;;;;2.40;2.20;;;;;;;10.08;100.00;95882.28;6177871;23;20005;-63
2022/10/16 01:20:31;;;;;;;8.65;2.50;;;;;;;10.07;100.00;95893.78;6176503;23;20020;-63
2022/10/16 01:22:57;;;;;;;5.57;2.92;;;;;;;9.97;100.00;95901.63;6176582;23;20001;-68
2022/10/16 01:25:51;;;;;;;4.68;2.70;;;;;;;9.94;100.00;95893.16;6177542;23;19997;-69
2022/10/16 01:28:19;;;;;;;4.03;3.00;;;;;;;9.91;100.00;95904.78;6175187;23;20005;-69
2022/10/16 01:30:46;;;;;;;3.25;2.70;;;;;;;9.90;100.00;95889.97;6177113;23;20458;-69
2022/10/16 01:33:20;;;;;;;5.30;2.90;;;;;;;9.91;100.00;95894.28;6177234;23;20017;-69
2022/10/16 01:35:53;;;;;;;3.05;2.83;;;;;;;9.87;100.00;95892.88;6177075;23;20005;-69
2022/10/16 01:38:34;;;;;;;2.72;2.17;;;;;;;9.84;100.00;95893.16;6177461;23;20003;-68
2022/10/16 01:41:05;;;;;;;4.03;2.55;;;;;;;9.83;100.00;95896.72;6176484;22;20059;-67
2022/10/16 01:43:43;;;;;;;2.50;2.35;;;;;;;9.85;100.00;95900.06;6176748;23;20001;-67
2022/10/16 01:46:10;;;;;;;3.00;2.55;;;;;;;9.84;100.00;95899.22;6177266;23;20072;-68
2022/10/16 01:48:36;;;;;;;3.80;2.53;;;;;;;9.86;100.00;95902.56;6176987;22;20005;-68
2022/10/16 01:51:09;;;;;;;7.80;2.72;;;;;;;9.83;100.00;95904.59;6176766;23;20001;-68
2022/10/16 01:53:36;;;;;;;2.88;2.67;;;;;;;9.80;100.00;95913.59;6176930;23;20024;-68
2022/10/16 01:56:05;;;;;;;3.95;2.72;;;;;;;9.75;100.00;95900.84;6177220;22;20001;-68
2022/10/16 01:58:36;;;;;;;2.65;2.45;;;;;;;9.74;100.00;95901.81;6177151;23;20068;-64
2022/10/16 02:01:03;;;;;;;2.45;2.22;;;;;;;9.78;100.00;95891.03;6176802;23;20005;-68
2022/10/16 02:03:28;;;;;;;5.18;2.38;;;;;;;9.79;100.00;95900.56;6177027;23;20068;-67
2022/10/16 02:05:56;;;;;;;4.43;2.30;;;;;;;9.74;100.00;95899.19;6177220;23;20089;-67
2022/10/16 02:08:25;;;;;;;2.50;2.30;;;;;;;9.71;100.00;95899.44;6176704;23;20005;-67
2022/10/16 02:10:51;;;;;;;4.78;2.33;;;;;;;9.69;100.00;95890.03;6176588;23;19997;-67
2022/10/16 02:13:22;;;;;;;3.08;2.05;;;;;;;9.70;100.00;95895.16;6176655;23;20058;-68
2022/10/16 02:15:48;;;;;;;2.78;2.42;;;;;;;9.65;100.00;95894.72;6177314;23;20012;-59
2022/10/16 02:18:13;;;;;;;4.15;2.45;;;;;;;9.67;100.00;95900.69;6176474;23;20026;-68
2022/10/16 02:20:50;;;;;;;6.55;2.40;;;;;;;9.64;100.00;95903.56;6177117;23;20012;-64
2022/10/16 02:23:24;;;;;;;3.17;2.08;;;;;;;9.61;100.00;95903.81;6176661;23;20423;-65
2022/10/16 02:25:52;;;;;;;5.50;2.65;;;;;;;9.62;100.00;95905.50;6177124;22;20009;-65
2022/10/16 02:28:23;;;;;;;2.33;2.17;;;;;;;9.64;100.00;95900.94;6176896;23;20055;-65
2022/10/16 02:30:58;;;;;;;3.45;2.10;;;;;;;9.67;100.00;95903.31;6176562;23;20024;-65
2022/10/16 02:33:26;;;;;;;4.47;1.90;;;;;;;9.69;100.00;95896.13;6176765;23;20428;-64
2022/10/16 02:35:53;;;;;;;3.33;2.15;;;;;;;9.67;100.00;95905.09;6176823;23;20000;-72
2022/10/16 02:38:20;;;;;;;6.28;2.10;;;;;;;9.62;100.00;95897.63;6176283;23;20543;-72
2022/10/16 02:40:45;;;;;;;3.90;1.90;;;;;;;9.59;100.00;95896.06;6176007;23;20005;-64
2022/10/16 02:43:11;;;;;;;3.97;1.80;;;;;;;9.71;100.00;95901.22;6176938;23;20005;-64
2022/10/16 02:45:36;;;;;;;3.72;2.00;;;;;;;9.62;100.00;95904.66;6176955;23;20008;-64
2022/10/16 02:48:02;;;;;;;2.60;2.00;;;;;;;9.62;100.00;95905.50;6176711;23;20488;-64
2022/10/16 02:50:27;;;;;;;1.80;1.70;;;;;;;9.54;100.00;95897.41;6176228;23;19997;-64
2022/10/16 02:52:53;;;;;;;6.72;2.10;;;;;;;9.49;100.00;95896.97;6176171;23;20004;-64
2022/10/16 02:55:18;;;;;;;7.53;2.00;;;;;;;9.48;100.00;95906.66;6176560;23;20106;-65
2022/10/16 02:57:44;;;;;;;1.95;1.77;;;;;;;9.49;100.00;95905.69;6177047;23;20013;-60
2022/10/16 03:00:12;;;;;;;1.70;1.60;;;;;;;9.45;100.00;95912.16;6176829;23;20005;-65
2022/10/16 03:02:38;;;;;;;2.22;1.90;;;;;;;9.48;100.00;95909.28;6176440;23;20001;-64
2022/10/16 03:05:03;;;;;;;8.32;2.15;;;;;;;9.48;100.00;95911.09;6176789;23;20104;-64
2022/10/16 03:07:29;;;;;;;2.58;2.05;;;;;;;9.51;100.00;95902.94;6176943;23;20001;-64
2022/10/16 03:09:55;;;;;;;5.10;1.83;;;;;;;9.49;100.00;95905.69;6176686;23;20002;-64
2022/10/16 03:12:21;;;;;;;2.20;2.10;;;;;;;9.68;100.00;95912.00;6176448;23;20324;-65
2022/10/16 03:14:46;;;;;;;3.55;1.80;;;;;;;9.57;100.00;95907.66;6176773;23;20059;-64
2022/10/16 03:17:12;;;;;;;3.30;2.28;;;;;;;9.52;100.00;95912.50;6177031;23;19997;-64
2022/10/16 03:19:38;;;;;;;3.03;2.42;;;;;;;9.54;100.00;95910.56;6176571;23;20469;-64
2022/10/16 03:22:04;;;;;;;4.13;1.90;;;;;;;9.49;100.00;95907.50;6176569;23;20001;-65
2022/10/16 03:24:29;;;;;;;3.42;2.40;;;;;;;9.45;100.00;95915.66;6176347;23;20392;-64
2022/10/16 03:26:54;;;;;;;2.83;2.30;;;;;;;9.43;100.00;95912.31;6176667;23;20021;-64
2022/10/16 03:29:20;;;;;;;3.13;1.80;;;;;;;9.44;100.00;95913.13;6176493;23;20024;-64
2022/10/16 03:31:45;;;;;;;2.60;2.20;;;;;;;9.42;100.00;95918.53;6176385;23;20435;-64
2022/10/16 03:34:10;;;;;;;3.13;2.00;;;;;;;9.39;100.00;95916.13;6176983;23;20339;-67
2022/10/16 03:36:36;;;;;;;2.70;2.20;;;;;;;9.43;100.00;95920.19;6176840;23;20068;-64
2022/10/16 03:39:02;;;;;;;5.40;2.30;;;;;;;9.45;100.00;95926.16;6176122;23;19997;-63
2022/10/16 03:41:27;;;;;;;2.15;2.05;;;;;;;9.46;100.00;95933.09;6176505;23;20005;-64
2022/10/16 03:43:52;;;;;;;4.50;2.20;;;;;;;9.46;100.00;95926.97;6176037;23;20084;-64
2022/10/16 03:46:18;;;;;;;4.25;2.10;;;;;;;9.40;100.00;95936.22;6176366;23;20003;-63
2022/10/16 03:48:43;;;;;;;4.82;2.22;;;;;;;9.36;100.00;95932.16;6176512;23;20009;-64
2022/10/16 03:51:09;;;;;;;4.60;2.05;;;;;;;9.34;100.00;95928.03;6176671;23;20024;-64
2022/10/16 03:53:34;;;;;;;2.55;1.90;;;;;;;9.33;100.00;95927.19;6176407;23;20000;-58
2022/10/16 03:56:00;;;;;;;6.13;2.40;;;;;;;9.30;100.00;95923.03;6176709;23;20001;-64
2022/10/16 03:58:25;;;;;;;2.25;2.05;;;;;;;9.26;100.00;95926.03;6176555;23;20100;-63
2022/10/16 04:00:50;;;;;;;2.33;1.90;;;;;;;9.29;100.00;95926.63;6175958;23;20076;-63
2022/10/16 04:03:17;;;;;;;4.32;1.85;;;;;;;9.34;100.00;95920.13;6176372;23;20027;-64
2022/10/16 04:05:42;;;;;;;3.35;1.80;;;;;;;9.27;100.00;95920.63;6176983;23;20012;-63
2022/10/16 04:08:07;;;;;;;7.00;4.28;;;;;;;9.24;100.00;95918.25;6176483;23;19997;-63
2022/10/16 04:10:33;;;;;;;5.80;2.83;;;;;;;9.19;100.00;95909.94;6176229;23;20005;-64
2022/10/16 04:12:58;;;;;;;2.70;2.50;;;;;;;9.19;100.00;95909.13;6176070;23;20013;-67
2022/10/16 04:15:25;;;;;;;9.63;4.38;;;;;;;9.17;100.00;95912.72;6176454;23;20106;-60
2022/10/16 04:17:51;;;;;;;4.90;2.85;;;;;;;9.20;100.00;95914.22;6176332;23;20080;-59
2022/10/16 04:20:16;;;;;;;9.00;2.30;;;;;;;9.20;100.00;95913.41;6176348;23;20087;-59
2022/10/16 04:22:42;;;;;;;2.22;2.00;;;;;;;9.19;100.00;95909.13;6176067;23;20439;-60
2022/10/16 04:25:07;;;;;;;4.22;2.08;;;;;;;9.21;100.00;95907.19;6176406;23;20541;-59
2022/10/16 04:27:33;;;;;;;2.50;2.00;;;;;;;9.20;100.00;95908.16;6176273;23;20033;-59
2022/10/16 04:29:59;;;;;;;3.55;1.98;;;;;;;9.20;100.00;95913.41;6175996;23;20050;-60
2022/10/16 04:32:26;;;;;;;5.35;2.00;;;;;;;9.18;100.00;95900.41;6175990;23;20058;-60
2022/10/16 04:34:51;;;;;;;2.35;2.25;;;;;;;9.16;100.00;95907.56;6176206;23;20076;-66
2022/10/16 04:37:17;;;;;;;6.63;1.83;;;;;;;9.16;100.00;95908.38;6176458;23;20419;-65
2022/10/16 04:39:42;;;;;;;5.35;1.90;;;;;;;9.13;100.00;95907.84;6176096;23;20167;-64
2022/10/16 04:42:08;;;;;;;2.97;2.10;;;;;;;9.06;100.00;95914.53;6177350;23;20441;-65
2022/10/16 04:44:33;;;;;;;2.53;2.05;;;;;;;9.03;100.00;95913.84;6176691;23;20443;-65
2022/10/16 04:46:58;;;;;;;3.17;1.90;;;;;;;9.03;100.00;95923.53;6150962;22;20009;-65
2022/10/16 04:49:24;;;;;;;2.15;2.05;;;;;;;9.10;100.00;95929.09;6177427;23;20075;-65
2022/10/16 04:51:49;;;;;;;7.32;2.17;;;;;;;9.06;100.00;95936.41;6177069;23;20428;-58
2022/10/16 04:54:15;;;;;;;5.80;2.28;;;;;;;9.05;100.00;95937.34;6177357;23;20005;-71
2022/10/16 04:56:46;;;;;;;4.28;2.40;;;;;;;9.03;100.00;95926.16;6177581;22;20343;-71
2022/10/16 04:59:12;;;;;;;2.83;2.00;;;;;;;9.05;100.00;95936.50;6177380;23;20032;-71
2022/10/16 05:01:38;;;;;;;2.25;2.05;;;;;;;9.03;100.00;95932.22;6177513;23;20005;-71
2022/10/16 05:04:04;;;;;;;2.50;2.13;;;;;;;9.05;100.00;95926.00;6177124;23;20007;-71
2022/10/16 05:06:29;;;;;;;4.00;1.92;;;;;;;9.05;100.00;95933.88;6176988;23;20080;-71
2022/10/16 05:08:54;;;;;;;2.83;2.10;;;;;;;9.07;100.00;95930.19;6177207;23;20389;-71
2022/10/16 05:11:20;;;;;;;2.80;2.10;;;;;;;9.05;100.00;95937.34;6177098;23;19993;-63
2022/10/16 05:13:45;;;;;;;3.28;1.88;;;;;;;9.00;100.00;95939.53;6176887;23;20359;-66
2022/10/16 05:16:11;;;;;;;1.90;1.80;;;;;;;9.02;100.00;95935.81;6177613;23;20004;-64
2022/10/16 05:18:36;;;;;;;2.38;1.95;;;;;;;9.00;100.00;95932.47;6177222;23;20389;-64
2022/10/16 05:21:02;;;;;;;10.77;1.80;;;;;;;8.96;100.00;95927.63;6176934;23;20007;-64
2022/10/16 05:23:27;;;;;;;2.28;1.90;;;;;;;9.00;100.00;95931.66;6177082;23;20001;-64
2022/10/16 05:25:57;;;;;;;8.60;1.77;;;;;;;9.06;100.00;95936.41;6177076;23;20007;-64
2022/10/16 05:28:27;;;;;;;2.05;1.80;;;;;;;8.99;100.00;95935.25;6177176;23;20028;-70
2022/10/16 05:30:52;;;;;;;5.65;2.15;;;;;;;8.95;100.00;95936.44;6176747;23;20032;-68
2022/10/16 05:33:22;;;;;;;2.45;1.90;;;;;;;8.95;100.00;95939.91;6177168;23;20024;-67
2022/10/16 05:35:49;;;;;;;3.55;2.30;;;;;;;8.99;100.00;95948.38;6177015;23;20012;-67
2022/10/16 05:38:15;;;;;;;3.33;1.63;;;;;;;8.94;100.00;95943.50;6177500;23;20008;-67
2022/10/16 05:40:40;;;;;;;2.00;1.85;;;;;;;8.91;100.00;95950.78;6177178;23;20347;-66
2022/10/16 05:43:06;;;;;;;2.08;1.88;;;;;;;8.91;100.00;95948.16;6176836;23;20081;-66
2022/10/16 05:45:31;;;;;;;2.22;1.95;;;;;;;8.93;100.00;95952.31;6177119;23;20001;-66
2022/10/16 05:47:56;;;;;;;6.40;2.00;;;;;;;8.96;100.00;95959.13;6177209;23;20005;-59
2022/10/16 05:50:22;;;;;;;6.88;2.10;;;;;;;8.93;100.00;95956.72;6176953;23;20001;-58
2022/10/16 05:52:47;;;;;;;1.60;1.50;;;;;;;8.88;100.00;95968.44;6177002;23;20001;-68
2022/10/16 05:55:12;;;;;;;2.00;1.90;;;;;;;8.88;100.00;95970.25;6177005;23;20005;-67
2022/10/16 05:57:38;;;;;;;3.95;2.17;;;;;;;8.88;100.00;95968.44;6177103;23;20431;-67
2022/10/16 06:00:04;;;;;;;2.60;2.00;;;;;;;8.91;100.00;95970.00;6177032;23;20062;-68
2022/10/16 06:02:30;;;;;;;3.50;2.10;;;;;;;8.91;100.00;95970.00;6176938;23;20005;-68
2022/10/16 06:04:55;;;;;;;2.63;2.42;;;;;;;8.91;100.00;95977.03;6176835;23;20005;-68
2022/10/16 06:07:21;;;;;;;3.08;2.53;;;;;;;8.88;100.00;95976.31;6177260;23;20007;-68
2022/10/16 06:09:52;;;;;;;2.10;2.00;;;;;;;8.89;100.00;95972.75;6177045;23;20005;-69
2022/10/16 06:12:17;;;;;;;9.65;2.22;;;;;;;8.95;100.00;95974.03;6176554;22;19997;-63
2022/10/16 06:14:42;;;;;;;5.25;1.77;;;;;;;8.92;100.00;95976.06;6177365;23;20050;-63
2022/10/16 06:17:08;;;;;;;4.10;2.20;;;;;;;8.91;100.00;95975.25;6177284;23;20076;-63
2022/10/16 06:19:33;;;;;;;2.20;1.98;;;;;;;8.94;100.00;95974.16;6176255;23;20092;-63
2022/10/16 06:21:59;;;;;;;2.35;2.13;;;;;;;8.95;100.00;95975.81;6176809;23;20005;-63
2022/10/16 06:24:25;;;;;;;2.45;2.20;;;;;;;8.95;100.00;95976.66;6176776;23;20004;-63
2022/10/16 06:26:50;;;;;;;3.80;2.00;;;;;;;8.99;100.00;95983.34;6177034;23;20001;-64
2022/10/16 06:29:16;;;;;;;1.80;1.70;;;;;;;8.99;100.00;95987.75;6176804;23;20427;-68
2022/10/16 06:31:41;;;;;;;6.53;2.03;;;;;;;8.99;100.00;95985.13;6177294;23;20335;-66
2022/10/16 06:34:10;;;;;;;2.10;1.90;;;;;;;9.01;100.00;95977.97;6176775;23;20028;-66
2022/10/16 06:36:36;;;;;;;6.75;2.17;;;;;;;9.04;100.00;95988.22;6176907;23;20036;-66
2022/10/16 06:39:02;;;;;;;2.20;2.00;;;;;;;9.02;100.00;95979.63;6176367;23;20001;-66
2022/10/16 06:41:27;;;;;;;6.63;2.10;;;;;;;9.04;100.00;95982.97;6176873;23;20005;-66
2022/10/16 06:43:53;;;;;;;7.47;2.40;;;;;;;9.06;100.00;95986.28;6176821;23;20377;-66
2022/10/16 06:46:22;;;;;;;7.60;2.35;;;;;;;9.08;100.00;95992.25;6176559;23;20008;-64
2022/10/16 06:48:47;;;;;;;2.42;2.22;;;;;;;9.12;100.00;95996.28;6176687;23;20005;-63
2022/10/16 06:51:18;;;;;;;2.22;2.03;;;;;;;9.15;100.00;96006.53;6176963;23;20480;-70
2022/10/16 06:53:48;;;;;;;3.50;2.30;;;;;;;9.16;100.00;96010.84;6176568;23;20009;-72
2022/10/16 06:56:18;;;;;;;2.58;2.38;;;;;;;9.18;100.00;96013.34;6176422;22;20008;-71
2022/10/16 06:58:44;;;;;;;2.15;2.05;;;;;;;9.19;100.00;96006.31;6176065;22;20344;-70
2022/10/16 07:01:10;;;;;;;5.78;2.53;;;;;;;9.19;100.00;96011.56;6175505;23;20009;-71
2022/10/16 07:03:38;;;;;;;7.10;2.90;;;;;;;9.19;100.00;96017.66;6174638;23;20028;-70
2022/10/16 07:06:05;;;;;;;7.68;2.63;;;;;;;9.23;100.00;96016.44;6176261;23;20116;-63
2022/10/16 07:08:32;;;;;;;2.80;2.60;;;;;;;9.24;100.00;96022.53;6175103;23;20080;-63
2022/10/16 07:11:02;;;;;;;4.70;2.53;;;;;;;9.23;100.00;96024.31;6173202;22;20020;-62
2022/10/16 07:13:27;;;;;;;5.65;2.78;;;;;;;9.28;100.00;96030.03;6174267;23;20076;-63
2022/10/16 07:15:53;;;;;;;3.05;2.75;;;;;;;9.33;100.00;96032.28;6175186;23;20031;-63
2022/10/16 07:18:18;;;;;;;6.78;2.95;;;;;;;9.34;100.00;96035.75;6174560;23;20666;-63
2022/10/16 07:20:44;;;;;;;9.10;2.80;;;;;;;9.35;100.00;96032.16;6174517;23;20001;-65
2022/10/16 07:23:09;;;;;;;2.53;2.33;;;;;;;9.34;100.00;96031.31;6174973;23;20031;-63
2022/10/16 07:25:34;;;;;;;5.30;2.63;;;;;;;9.37;100.00;96038.13;6174001;23;20343;-68
2022/10/16 07:28:00;;;;;;;2.55;2.28;;;;;;;9.38;100.00;96029.28;6175852;23;20036;-63
2022/10/16 07:30:25;;;;;;;4.00;2.25;;;;;;;9.38;100.00;96029.28;6175236;23;20007;-63
2022/10/16 07:32:50;;;;;;;2.78;2.35;;;;;;;9.52;100.00;96038.66;6175792;23;20051;-63
2022/10/16 07:35:16;;;;;;;4.40;2.78;;;;;;;9.49;100.00;96042.34;6176289;23;20076;-64
2022/10/16 07:37:45;;;;;;;2.85;2.22;;;;;;;9.54;100.00;96044.63;6176388;23;20000;-62
2022/10/16 07:40:11;;;;;;;7.35;2.50;;;;;;;9.55;100.00;96044.50;6176931;23;20490;-64
2022/10/16 07:42:36;;;;;;;3.42;2.30;;;;;;;9.74;100.00;96046.41;6176221;23;20011;-64
2022/10/16 07:45:02;;;;;;;6.35;3.50;;;;;;;9.69;100.00;96048.59;6176968;23;20428;-60
2022/10/16 07:47:27;;;;;;;2.63;2.42;;;;;;;9.73;100.00;96050.00;6176035;23;20001;-69
2022/10/16 07:49:53;;;;;;;11.20;2.38;;;;;;;9.75;100.00;96053.34;6176445;23;20001;-67
2022/10/16 07:52:18;;;;;;;9.75;2.65;;;;;;;9.82;100.00;96044.94;6176084;23;20408;-68
2022/10/16 07:54:43;;;;;;;2.97;2.38;;;;;;;9.93;100.00;96054.56;6176070;23;19997;-69
2022/10/16 07:57:09;;;;;;;4.43;2.00;;;;;;;10.05;100.00;96048.28;6176707;23;20001;-67
2022/10/16 07:59:34;;;;;;;3.05;2.40;;;;;;;10.19;100.00;96049.72;6175956;23;20077;-67
2022/10/16 08:01:59;;;;;;;3.33;2.50;;;;;;;10.39;100.00;96049.81;6176570;23;20012;-67
2022/10/16 08:04:25;;;;;;;3.97;2.17;;;;;;;10.84;100.00;96065.25;6176495;23;20442;-59
2022/10/16 08:06:50;;;;;;;2.78;2.20;;;;;;;11.18;100.00;96066.72;6175647;23;20046;-63
2022/10/16 08:09:15;;;;;;;2.35;1.83;;;;;;;11.30;100.00;96064.78;6176529;23;20009;-64
2022/10/16 08:11:41;;;;;;;3.17;2.20;;;;;;;11.52;100.00;96062.84;6176729;23;20003;-63
2022/10/16 08:14:06;;;;;;;1.77;1.67;;;;;;;11.63;100.00;96070.63;6176317;23;20004;-63
2022/10/16 08:16:32;;;;;;;3.15;1.73;;;;;;;11.70;100.00;96066.47;6175484;22;20388;-64
2022/10/16 08:18:57;;;;;;;3.70;1.77;;;;;;;11.88;100.00;96073.69;6174970;23;20021;-64
2022/10/16 08:21:23;;;;;;;2.47;1.92;;;;;;;12.04;100.00;96068.66;6173938;23;20001;-64
2022/10/16 08:23:53;;;;;;;5.75;2.17;;;;;;;12.16;100.00;96072.00;6175616;22;20092;-63
2022/10/16 08:26:19;;;;;;;2.05;1.90;;;;;;;12.29;100.00;96079.59;6174225;23;20005;-69
2022/10/16 08:28:44;;;;;;;2.63;1.85;;;;;;;12.32;100.00;96087.22;6148139;22;20580;-70
2022/10/16 08:31:11;;;;;;;3.53;1.90;;;;;;;12.38;100.00;96077.91;6175975;23;20072;-67
2022/10/16 08:33:37;;;;;;;3.05;1.77;;;;;;;12.44;100.00;96082.63;6176221;23;20004;-69
2022/10/16 08:36:04;;;;;;;2.13;1.70;;;;;;;12.42;100.00;96078.44;6175988;23;20009;-67
2022/10/16 08:38:29;;;;;;;2.03;1.60;;;;;;;12.39;100.00;96066.38;6176050;23;20001;-69
2022/10/16 08:41:08;;;;;;;2.30;2.20;;;;;;;12.42;100.00;96081.06;6175550;23;20008;-58
2022/10/16 08:43:51;;;;;;;3.47;2.03;;;;;;;12.54;100.00;96081.72;6176106;23;20022;-66
2022/10/16 08:46:41;;;;;;;5.85;2.00;;;;;;;12.61;100.00;96081.00;6175828;22;20328;-64
2022/10/16 08:49:12;;;;;;;5.65;2.25;;;;;;;12.72;100.00;96081.81;6176158;23;20026;-63
2022/10/16 08:51:37;;;;;;;3.90;2.15;;;;;;;12.88;100.00;96073.25;6176275;22;20041;-65
2022/10/16 08:54:06;;;;;;;4.22;1.80;;;;;;;12.93;100.00;96078.94;6176190;23;20001;-64
2022/10/16 08:56:33;;;;;;;3.47;1.67;;;;;;;13.02;100.00;96070.09;6149131;23;20454;-65
2022/10/16 08:58:59;;;;;;;1.90;1.80;;;;;;;13.14;100.00;96083.94;6175870;23;20021;-64
2022/10/16 09:01:39;;;;;;;1.80;1.70;;;;;;;13.20;100.00;96079.06;6175792;23;20001;-64
2022/10/16 09:04:41;;;;;;;1.70;1.60;;;;;;;13.30;100.00;96085.09;6149788;23;20740;-60
2022/10/16 09:07:25;;;;;;;2.55;2.00;;;;;;;13.42;100.00;96089.22;6175882;23;20584;-59
2022/10/16 09:10:29;;;;;;;4.30;1.60;;;;;;;13.52;100.00;96083.88;6175732;23;20004;-60
2022/10/16 09:13:11;;;;;;;2.55;2.08;;;;;;;13.67;100.00;96085.97;6176310;23;20447;-60
2022/10/16 09:15:52;;;;;;;2.00;1.90;;;;;;;13.78;100.00;96079.63;6175502;23;20028;-60
2022/10/16 09:18:45;;;;;;;3.35;1.73;;;;;;;13.92;97.52;96084.38;6175357;23;19997;-60
2022/10/16 09:21:21;;;;;;;1.52;1.42;;;;;;;14.04;98.62;96085.81;6175835;23;19997;-63
2022/10/16 09:23:47;;;;;;;3.35;1.60;;;;;;;14.23;95.93;96091.06;6175390;23;20013;-58
2022/10/16 09:26:15;;;;;;;1.42;1.40;;;;;;;14.31;96.41;96089.31;6176269;23;20002;-58
2022/10/16 09:28:41;;;;;;;1.60;1.50;;;;;;;14.47;94.18;96082.44;6177407;22;20054;-58
2022/10/16 09:31:15;;;;;;;1.77;1.48;;;;;;;14.69;88.95;96096.13;6177079;23;20001;-58
2022/10/16 09:33:42;;;;;;;1.65;1.30;;;;;;;14.77;87.66;96104.16;6177220;23;19997;-58
2022/10/16 09:36:10;;;;;;;2.13;1.52;;;;;;;14.84;86.41;96099.88;6177257;22;20005;-56
2022/10/16 09:38:36;;;;;;;2.78;1.40;;;;;;;14.89;86.64;96092.28;6176906;23;20001;-68
2022/10/16 09:41:15;;;;;;;2.78;1.40;;;;;;;15.01;87.15;96092.00;6177062;23;20031;-69
2022/10/16 09:43:59;;;;;;;2.05;1.50;;;;;;;15.07;87.77;96099.31;6177385;23;20127;-63
2022/10/16 09:46:37;;;;;;;1.83;1.60;;;;;;;15.18;88.64;96091.09;6150800;22;20458;-63
2022/10/16 09:49:24;;;;;;;6.88;1.70;;;;;;;15.33;87.16;96095.75;6176720;23;20005;-63
2022/10/16 09:51:53;;;;;;;3.00;1.50;;;;;;;15.43;87.04;96098.25;6176670;23;20001;-63
2022/10/16 09:54:21;;;;;;;2.58;1.42;;;;;;;15.50;85.58;96090.50;6177274;23;20005;-63
2022/10/16 09:56:51;;;;;;;1.73;1.63;;;;;;;15.56;85.47;96097.78;6176710;23;20012;-64
2022/10/16 09:59:23;;;;;;;6.95;1.70;;;;;;;15.72;83.85;96087.19;6176869;23;20077;-63
2022/10/16 10:01:51;;;;;;;1.88;1.67;;;;;;;15.89;84.76;96087.25;6150675;22;20009;-64
2022/10/16 10:04:19;;;;;;;1.30;1.30;;;;;;;15.99;84.38;96097.72;6176859;23;20013;-63
2022/10/16 10:06:54;;;;;;;2.25;1.55;;;;;;;16.06;82.62;96090.72;6176979;23;19997;-64
2022/10/16 10:09:48;;;;;;;1.55;1.45;;;;;;;16.12;83.10;96092.72;6176752;23;20047;-64
2022/10/16 10:12:23;;;;;;;2.00;1.67;;;;;;;16.18;80.84;96080.59;6177511;23;20100;-64
2022/10/16 10:14:55;;;;;;;1.88;1.45;;;;;;;16.31;79.19;96082.72;6176822;23;20009;-64
2022/10/16 10:17:25;;;;;;;1.60;1.50;;;;;;;16.53;81.05;96075.91;6177145;23;20031;-66
2022/10/16 10:19:58;;;;;;;2.83;1.40;;;;;;;16.67;79.00;96071.69;6176839;23;20067;-67
2022/10/16 10:22:28;;;;;;;1.58;1.48;;;;;;;16.85;79.95;96058.16;6176411;23;20005;-68
2022/10/16 10:25:13;;;;;;;1.50;1.40;;;;;;;17.05;79.70;96060.44;6150524;22;20028;-70
2022/10/16 10:28:03;;;;;;;2.15;1.30;;;;;;;17.20;79.99;96057.06;6176175;23;20508;-69
2022/10/16 10:30:40;;;;;;;2.08;1.70;;;;;;;17.32;81.02;96055.63;6176049;23;20072;-69
2022/10/16 10:33:15;;;;;;;1.65;1.45;;;;;;;17.51;80.21;96053.53;6176195;23;20443;-74
2022/10/16 10:35:45;;;;;;;1.30;1.30;;;;;;;17.61;77.80;96046.16;6176608;23;20001;-71
2022/10/16 10:38:37;;;;;;;4.72;1.52;;;;;;;17.81;74.39;96053.66;6176776;23;20001;-70
2022/10/16 10:41:30;;;;;;;1.45;1.30;;;;;;;17.98;74.07;96057.84;6176560;23;20005;-63
2022/10/16 10:44:04;;;;;;;1.30;1.30;;;;;;;18.17;73.27;96048.56;6172339;23;20008;-63
2022/10/16 10:46:32;;;;;;;2.50;1.43;;;;;;;18.29;72.01;96040.94;6174727;23;20034;-63
2022/10/16 10:49:19;;;;;;;2.90;1.45;;;;;;;18.40;71.39;96049.50;6176452;23;19997;-63
2022/10/16 10:52:12;;;;;;;1.52;1.40;;;;;;;18.54;68.73;96040.69;6176430;23;20020;-62
2022/10/16 10:54:40;;;;;;;2.60;1.40;;;;;;;18.68;70.34;96055.03;6175860;23;20389;-63
2022/10/16 10:57:22;;;;;;;2.55;1.60;;;;;;;18.93;68.54;96040.56;6177182;22;20343;-70
2022/10/16 11:00:14;;;;;;;3.20;1.30;;;;;;;19.22;65.28;96039.69;6175975;23;20005;-59
2022/10/16 11:02:39;;;;;;;1.67;1.58;;;;;;;19.45;67.40;96047.56;6176562;23;20005;-58
2022/10/16 11:05:20;;;;;;;2.47;1.30;;;;;;;19.63;64.94;96038.31;6176964;23;20384;-58
2022/10/16 11:07:50;;;;;;;3.42;1.20;;;;;;;19.95;64.69;96028.13;6174235;23;20001;-58
2022/10/16 11:10:21;;;;;;;2.30;2.10;;;;;;;20.21;62.01;96026.66;6173458;23;20001;-59
2022/10/16 11:12:52;;;;;;;3.13;1.00;;;;;;;20.65;53.49;96026.53;6174619;23;19997;-59
2022/10/16 11:15:28;;;;;;;5.60;1.38;;;;;;;21.10;52.71;96028.84;6177165;23;20465;-65
2022/10/16 11:18:04;;;;;;;1.10;1.10;;;;;;;21.32;50.23;96021.47;6174035;23;20126;-68
2022/10/16 11:20:39;;;;;;;3.67;1.27;;;;;;;21.46;51.71;96019.69;6173641;23;20025;-73
2022/10/16 11:23:13;;;;;;;;;;;;;;;21.43;51.55;96012.03;6176489;23;20105;-72
2022/10/16 11:25:39;;;;;;;1.33;1.23;;;;;;;21.66;48.59;96006.34;6172719;23;19908;-70
2022/10/16 11:28:24;;;;;;;1.92;1.10;;;;;;;21.89;47.32;96005.97;6175055;23;20040;-70
2022/10/16 11:30:59;;;;;;;0.95;0.93;;;;;;;21.78;47.82;95997.72;6175551;22;20205;-71
2022/10/16 11:33:31;;;;;;;1.50;1.40;;;;;;;21.83;48.13;95996.03;6175349;22;20007;-70
2022/10/16 11:36:04;;;;;;;2.30;1.17;;;;;;;21.91;47.72;95994.22;6176197;23;20001;-58
2022/10/16 11:38:44;;;;;;;1.20;1.10;;;;;;;21.98;46.63;95995.84;6176328;23;20001;-64
2022/10/16 11:41:27;;;;;;;1.13;1.13;;;;;;;21.84;49.40;95986.16;6176147;23;20079;-64